createdAt,value
2018-03-21T00:02:01.410Z,78.30
2018-03-21T00:04:28.910Z,79.80
2018-03-21T00:06:57.188Z,79.50
2018-03-21T00:09:25.429Z,77.70
2018-03-21T00:11:52.942Z,77.70
2018-03-21T00:14:20.427Z,76.90
2018-03-21T00:16:47.938Z,77.20
2018-03-21T00:19:16.186Z,76.00
2018-03-21T00:21:43.682Z,76.00
2018-03-21T00:24:11.935Z,77.50
2018-03-21T00:26:39.436Z,77.50
2018-03-21T00:29:06.904Z,75.10
2018-03-21T00:31:34.388Z,75.50
2018-03-21T00:34:01.883Z,74.90
2018-03-21T00:36:30.199Z,75.10
2018-03-21T00:38:57.695Z,75.10
2018-03-21T00:41:25.194Z,74.50
2018-03-21T00:43:53.440Z,74.90
2018-03-21T00:46:20.913Z,74.90
2018-03-21T00:48:49.202Z,73.70
2018-03-21T00:51:17.457Z,72.80
2018-03-21T00:53:44.950Z,72.70
2018-03-21T00:56:12.444Z,73.10
2018-03-21T00:58:39.926Z,73.10
2018-03-21T01:01:07.426Z,73.10
2018-03-21T01:03:34.955Z,73.80
2018-03-21T01:06:03.199Z,73.90
2018-03-21T01:08:30.684Z,73.90
2018-03-21T01:10:58.163Z,73.50
2018-03-21T01:13:26.438Z,73.40
2018-03-21T01:15:54.676Z,73.30
2018-03-21T01:18:22.150Z,73.30
2018-03-21T01:20:49.690Z,72.80
2018-03-21T01:23:17.187Z,73.70
2018-03-21T01:25:45.458Z,73.10
2018-03-21T01:28:13.698Z,71.00
2018-03-21T01:30:41.207Z,70.90
2018-03-21T01:33:09.473Z,72.40
2018-03-21T01:35:37.742Z,72.10
2018-03-21T01:38:05.214Z,72.00
2018-03-21T01:40:33.482Z,71.30
2018-03-21T01:43:00.946Z,71.30
2018-03-21T01:45:29.226Z,70.40
2018-03-21T01:47:57.457Z,71.60
2018-03-21T01:50:24.961Z,71.60
2018-03-21T01:53:05.269Z,71.90
2018-03-21T01:55:32.744Z,71.90
2018-03-21T01:58:00.237Z,71.80
2018-03-21T02:00:28.500Z,70.30
2018-03-21T02:02:56.017Z,70.30
2018-03-21T02:05:23.492Z,70.10
2018-03-21T02:07:50.990Z,70.40
2018-03-21T02:10:19.243Z,70.10
2018-03-21T02:12:46.734Z,70.00
2018-03-21T02:15:14.232Z,69.90
2018-03-21T02:17:41.684Z,70.10
2018-03-21T02:20:09.180Z,71.80
2018-03-21T02:22:37.426Z,70.60
2018-03-21T02:25:04.922Z,70.60
2018-03-21T02:27:32.398Z,70.20
2018-03-21T02:30:00.651Z,70.20
2018-03-21T02:32:28.127Z,70.20
2018-03-21T02:34:56.391Z,68.10
2018-03-21T02:37:23.866Z,68.10
2018-03-21T02:39:52.146Z,68.20
2018-03-21T02:42:20.406Z,68.70
2018-03-21T02:44:49.428Z,68.30
2018-03-21T02:47:16.931Z,68.30
2018-03-21T02:49:44.418Z,68.00
2018-03-21T02:52:11.907Z,67.60
2018-03-21T02:54:39.391Z,67.70
2018-03-21T02:57:06.886Z,68.10
2018-03-21T02:59:34.347Z,68.40
2018-03-21T03:02:01.845Z,68.00
2018-03-21T03:04:29.340Z,68.80
2018-03-21T03:06:56.859Z,68.80
2018-03-21T03:09:24.350Z,68.60
2018-03-21T03:11:51.817Z,69.20
2018-03-21T03:14:19.331Z,69.20
2018-03-21T03:16:47.560Z,70.20
2018-03-21T03:19:15.029Z,70.20
2018-03-21T03:21:42.525Z,70.00
2018-03-21T03:24:10.010Z,70.10
2018-03-21T03:26:37.520Z,70.10
2018-03-21T03:29:05.751Z,70.10
2018-03-21T03:31:33.248Z,70.10
2018-03-21T03:34:00.707Z,70.10
2018-03-21T03:36:28.215Z,69.70
2018-03-21T03:38:55.706Z,70.40
2018-03-21T03:41:23.200Z,70.20
2018-03-21T03:43:51.457Z,69.10
2018-03-21T03:46:18.927Z,69.10
2018-03-21T03:48:47.207Z,68.80
2018-03-21T03:51:15.450Z,69.10
2018-03-21T03:53:42.920Z,69.10
2018-03-21T03:56:10.406Z,69.40
2018-03-21T03:58:38.673Z,68.90
2018-03-21T04:01:06.947Z,69.90
2018-03-21T04:03:35.199Z,69.00
2018-03-21T04:06:02.700Z,69.00
2018-03-21T04:08:30.940Z,69.20
2018-03-21T04:10:58.434Z,69.20
2018-03-21T04:13:26.687Z,69.10
2018-03-21T04:15:54.220Z,69.10
2018-03-21T04:18:21.721Z,69.70
2018-03-21T04:20:49.974Z,69.40
2018-03-21T04:23:17.474Z,69.40
2018-03-21T04:25:44.954Z,69.30
2018-03-21T04:28:12.461Z,70.00
2018-03-21T04:30:39.947Z,69.90
2018-03-21T04:33:08.210Z,70.60
2018-03-21T04:35:36.448Z,70.70
2018-03-21T04:38:03.970Z,70.70
2018-03-21T04:40:31.470Z,70.50
2018-03-21T04:42:58.958Z,71.50
2018-03-21T04:45:27.195Z,71.50
2018-03-21T04:47:54.691Z,71.50
2018-03-21T04:50:22.188Z,72.00
2018-03-21T04:52:49.659Z,71.80
2018-03-21T04:55:17.167Z,70.70
2018-03-21T04:57:45.427Z,70.70
2018-03-21T05:00:14.438Z,70.40
2018-03-21T05:02:42.679Z,70.40
2018-03-21T05:05:10.180Z,70.40
2018-03-21T05:07:38.434Z,70.60
2018-03-21T05:10:05.914Z,70.60
2018-03-21T05:12:34.187Z,71.20
2018-03-21T05:15:02.431Z,72.00
2018-03-21T05:17:30.479Z,72.00
2018-03-21T05:19:57.969Z,71.30
2018-03-21T05:22:25.473Z,71.20
2018-03-21T05:24:52.951Z,71.20
2018-03-21T05:27:20.488Z,73.60
2018-03-21T05:29:48.751Z,73.00
2018-03-21T05:32:17.025Z,74.40
2018-03-21T05:34:45.338Z,73.80
2018-03-21T05:37:12.775Z,73.70
2018-03-21T05:39:40.272Z,74.50
2018-03-21T05:42:07.771Z,74.20
2018-03-21T05:44:35.276Z,74.90
2018-03-21T05:47:02.741Z,74.50
2018-03-21T05:49:30.288Z,74.40
2018-03-21T05:51:57.771Z,74.90
2018-03-21T05:54:25.266Z,75.20
2018-03-21T05:56:53.495Z,74.50
2018-03-21T05:59:20.996Z,74.50
2018-03-21T06:01:48.479Z,74.10
2018-03-21T06:04:16.907Z,73.80
2018-03-21T06:06:44.370Z,73.80
2018-03-21T06:09:11.898Z,74.20
2018-03-21T06:11:39.405Z,74.50
2018-03-21T06:14:06.866Z,73.90
2018-03-21T06:16:34.388Z,74.40
2018-03-21T06:19:01.845Z,74.20
2018-03-21T06:21:29.347Z,73.50
2018-03-21T06:23:56.850Z,72.30
2018-03-21T06:26:24.349Z,73.30
2018-03-21T06:28:51.883Z,72.90
2018-03-21T06:31:19.358Z,72.70
2018-03-21T06:33:46.847Z,71.50
2018-03-21T06:36:15.109Z,70.20
2018-03-21T06:38:42.630Z,70.10
2018-03-21T06:41:10.109Z,68.30
2018-03-21T06:43:37.589Z,67.00
2018-03-21T06:46:05.108Z,66.20
2018-03-21T06:48:32.650Z,66.20
2018-03-21T06:51:00.136Z,66.10
2018-03-21T06:53:27.611Z,64.10
2018-03-21T06:55:55.099Z,63.40
2018-03-21T06:58:23.398Z,62.60
2018-03-21T07:00:50.879Z,62.60
2018-03-21T07:03:18.351Z,61.30
2018-03-21T07:05:45.830Z,59.20
2018-03-21T07:08:13.313Z,60.60
2018-03-21T07:10:41.582Z,62.00
2018-03-21T07:13:09.806Z,61.70
2018-03-21T07:15:49.247Z,61.70
2018-03-21T07:18:17.172Z,62.50
2018-03-21T07:20:45.418Z,61.50
2018-03-21T07:23:12.954Z,61.50
2018-03-21T07:25:41.156Z,63.20
2018-03-21T07:28:08.648Z,63.20
2018-03-21T07:30:36.939Z,61.90
2018-03-21T07:33:04.404Z,61.90
2018-03-21T07:35:31.915Z,62.60
2018-03-21T07:37:59.387Z,62.50
2018-03-21T07:40:26.898Z,62.80
2018-03-21T07:42:54.378Z,62.10
2018-03-21T07:45:21.843Z,62.20
2018-03-21T07:47:49.359Z,61.30
2018-03-21T07:50:16.827Z,61.50
2018-03-21T07:52:44.334Z,62.40
2018-03-21T07:55:11.823Z,60.60
2018-03-21T07:57:39.307Z,61.80
2018-03-21T08:00:06.782Z,64.00
2018-03-21T08:02:34.273Z,59.90
2018-03-21T08:05:01.762Z,57.80
2018-03-21T08:07:29.295Z,59.50
2018-03-21T08:09:57.605Z,59.00
2018-03-21T08:12:25.080Z,59.10
2018-03-21T08:14:52.602Z,59.20
2018-03-21T08:17:20.843Z,57.10
2018-03-21T08:19:48.367Z,57.10
2018-03-21T08:22:15.875Z,60.10
2018-03-21T08:24:43.552Z,60.50
2018-03-21T08:27:11.838Z,59.20
2018-03-21T08:29:39.324Z,59.20
2018-03-21T08:32:06.827Z,59.40
2018-03-21T08:34:34.324Z,59.60
2018-03-21T08:37:01.808Z,58.40
2018-03-21T08:39:29.325Z,57.40
2018-03-21T08:41:56.832Z,60.30
2018-03-21T08:44:24.368Z,60.00
2018-03-21T08:46:51.839Z,60.10
2018-03-21T08:49:19.369Z,56.90
2018-03-21T08:51:47.616Z,57.10
2018-03-21T08:54:15.099Z,56.90
2018-03-21T09:02:48.402Z,55.40
2018-03-21T09:05:15.903Z,54.60
2018-03-21T09:07:43.387Z,53.20
2018-03-21T09:10:10.916Z,52.70
2018-03-21T09:12:38.456Z,51.50
2018-03-21T09:15:06.661Z,53.80
2018-03-21T09:17:34.135Z,53.90
2018-03-21T09:20:01.595Z,52.80
2018-03-21T09:22:29.101Z,52.80
2018-03-21T09:24:56.567Z,52.50
2018-03-21T09:27:24.091Z,50.80
2018-03-21T09:29:52.327Z,53.30
2018-03-21T09:32:19.839Z,53.30
2018-03-21T09:34:48.085Z,51.30
2018-03-21T09:37:15.579Z,51.20
2018-03-21T09:39:43.059Z,53.50
2018-03-21T09:42:10.520Z,52.20
2018-03-21T09:44:38.049Z,51.80
2018-03-21T09:47:06.289Z,48.30
2018-03-21T09:49:33.778Z,48.30
2018-03-21T09:52:02.002Z,49.10
2018-03-21T09:54:31.992Z,49.10
2018-03-21T09:56:59.458Z,45.80
2018-03-21T09:59:26.995Z,48.70
2018-03-21T10:01:55.293Z,46.90
2018-03-21T10:04:22.739Z,46.90
2018-03-21T10:06:50.254Z,48.30
2018-03-21T10:09:17.730Z,47.70
2018-03-21T10:11:45.986Z,48.20
2018-03-21T10:14:13.454Z,48.20
2018-03-21T10:16:40.970Z,45.70
2018-03-21T10:19:08.447Z,44.80
2018-03-21T10:21:35.949Z,44.40
2018-03-21T10:24:04.174Z,43.70
2018-03-21T10:26:31.646Z,43.70
2018-03-21T10:28:59.168Z,41.60
2018-03-21T10:31:26.645Z,44.30
2018-03-21T10:33:54.137Z,43.60
2018-03-21T10:36:21.598Z,41.40
2018-03-21T10:38:49.081Z,41.60
2018-03-21T10:41:17.311Z,41.80
2018-03-21T10:43:44.804Z,41.60
2018-03-21T10:46:12.303Z,41.20
2018-03-21T10:48:39.826Z,41.80
2018-03-21T10:51:08.095Z,40.10
2018-03-21T10:53:35.581Z,40.10
2018-03-21T10:56:03.052Z,41.60
2018-03-21T10:58:30.510Z,39.70
2018-03-21T11:00:58.026Z,41.50
2018-03-21T11:03:25.522Z,41.20
2018-03-21T11:05:53.750Z,40.50
2018-03-21T11:08:21.232Z,40.50
2018-03-21T11:10:49.551Z,41.10
2018-03-21T11:13:17.020Z,41.10
2018-03-21T11:15:44.538Z,39.50
2018-03-21T11:18:12.798Z,39.60
2018-03-21T11:20:41.066Z,40.00
2018-03-21T11:23:08.578Z,39.90
2018-03-21T11:25:36.092Z,39.20
2018-03-21T11:28:04.327Z,39.90
2018-03-21T11:30:31.786Z,40.00
2018-03-21T11:32:59.287Z,39.40
2018-03-21T11:35:27.545Z,36.70
2018-03-21T11:37:55.026Z,36.70
2018-03-21T11:40:23.259Z,38.20
2018-03-21T11:42:50.776Z,38.00
2018-03-21T11:45:18.278Z,37.30
2018-03-21T11:47:45.743Z,36.80
2018-03-21T11:50:14.017Z,36.90
2018-03-21T11:52:41.516Z,36.90
2018-03-21T11:55:09.767Z,37.20
2018-03-21T11:57:37.267Z,37.20
2018-03-21T12:00:04.783Z,38.70
2018-03-21T12:02:33.028Z,36.40
2018-03-21T12:05:00.565Z,36.20
2018-03-21T12:07:28.105Z,36.90
2018-03-21T12:09:56.464Z,36.50
2018-03-21T12:12:24.624Z,35.50
2018-03-21T12:14:52.134Z,35.50
2018-03-21T12:17:19.606Z,32.50
2018-03-21T12:19:47.115Z,33.00
2018-03-21T12:22:14.614Z,33.70
2018-03-21T12:24:42.162Z,33.80
2018-03-21T12:27:09.624Z,31.30
2018-03-21T12:29:37.856Z,33.30
2018-03-21T12:32:05.374Z,33.40
2018-03-21T12:34:32.839Z,33.30
2018-03-21T12:37:00.343Z,31.80
2018-03-21T12:39:27.823Z,30.70
2018-03-21T12:41:56.136Z,30.00
2018-03-21T12:44:23.625Z,29.80
2018-03-21T12:46:51.099Z,32.90
2018-03-21T12:49:18.613Z,34.50
2018-03-21T12:51:46.095Z,33.90
2018-03-21T12:54:13.635Z,32.90
2018-03-21T12:56:41.118Z,32.50
2018-03-21T12:59:08.752Z,31.10
2018-03-21T13:01:36.317Z,30.50
2018-03-21T13:04:03.812Z,31.30
2018-03-21T13:06:31.286Z,32.50
2018-03-21T13:08:59.554Z,33.80
2018-03-21T13:11:27.011Z,33.60
2018-03-21T13:13:54.507Z,33.50
2018-03-21T13:16:22.789Z,31.80
2018-03-21T13:18:50.335Z,30.60
2018-03-21T13:21:18.565Z,29.80
2018-03-21T13:23:46.019Z,29.60
2018-03-21T13:26:13.518Z,29.20
2018-03-21T13:28:41.796Z,28.90
2018-03-21T13:31:10.090Z,30.10
2018-03-21T13:33:37.554Z,30.10
2018-03-21T13:36:05.053Z,30.50
2018-03-21T13:38:32.582Z,31.00
2018-03-21T13:41:00.057Z,30.80
2018-03-21T13:43:27.596Z,31.10
2018-03-21T13:45:55.095Z,28.80
2018-03-21T13:48:22.567Z,29.20
2018-03-21T13:50:50.049Z,29.30
2018-03-21T13:53:18.315Z,28.60
2018-03-21T13:55:46.569Z,29.90
2018-03-21T13:58:14.091Z,29.90
2018-03-21T14:00:41.604Z,29.00
2018-03-21T14:03:09.111Z,29.00
2018-03-21T14:05:36.603Z,28.90
2018-03-21T14:08:04.119Z,28.60
2018-03-21T14:10:31.602Z,28.60
2018-03-21T14:12:59.112Z,28.30
2018-03-21T14:15:27.372Z,28.80
2018-03-21T14:17:54.977Z,28.80
2018-03-21T14:20:22.485Z,28.20
2018-03-21T14:22:49.966Z,27.20
2018-03-21T14:25:18.220Z,28.60
2018-03-21T14:27:45.700Z,28.60
2018-03-21T14:30:13.983Z,29.50
2018-03-21T14:32:41.480Z,29.50
2018-03-21T14:35:08.991Z,29.50
2018-03-21T14:37:37.239Z,29.50
2018-03-21T16:59:08.794Z,32.20
2018-03-21T17:01:37.084Z,32.10
2018-03-21T17:04:04.664Z,32.10
2018-03-21T17:06:32.131Z,31.00
2018-03-21T17:08:59.628Z,31.00
2018-03-21T17:11:27.908Z,31.40
2018-03-21T17:13:55.423Z,31.40
2018-03-21T17:16:22.907Z,31.70
2018-03-21T17:18:50.463Z,32.20
2018-03-21T17:21:18.656Z,32.00
2018-03-21T17:23:46.168Z,32.00
2018-03-21T17:26:13.674Z,32.50
2018-03-21T17:28:41.163Z,32.00
2018-03-21T17:31:09.401Z,32.60
2018-03-21T17:33:36.873Z,32.60
2018-03-21T17:36:04.379Z,33.20
2018-03-21T17:38:31.887Z,33.70
2018-03-21T17:40:59.408Z,34.50
2018-03-21T17:43:26.910Z,34.60
2018-03-21T17:45:54.391Z,33.60
2018-03-21T17:48:22.634Z,32.10
2018-03-21T17:50:50.119Z,32.10
2018-03-21T17:53:18.378Z,32.10
2018-03-21T17:55:45.905Z,32.10
2018-03-21T17:58:13.370Z,31.70
2018-03-21T18:00:40.910Z,32.10
2018-03-21T18:03:08.399Z,33.00
2018-03-21T18:05:35.920Z,33.00
2018-03-21T18:08:03.390Z,32.90
2018-03-21T18:10:30.868Z,33.20
2018-03-21T18:12:58.413Z,33.30
2018-03-21T18:15:25.936Z,33.30
2018-03-21T18:17:54.216Z,34.10
2018-03-21T18:20:22.487Z,34.20
2018-03-21T18:22:50.777Z,34.20
2018-03-21T18:25:18.259Z,34.20
2018-03-21T18:27:45.775Z,35.10
2018-03-21T18:30:14.077Z,36.90
2018-03-21T18:32:41.567Z,36.90
2018-03-21T18:35:09.048Z,36.30
2018-03-21T18:37:36.560Z,36.10
2018-03-21T18:40:04.080Z,36.30
2018-03-21T18:42:32.416Z,37.60
2018-03-21T18:44:59.917Z,37.60
2018-03-21T18:47:28.191Z,39.00
2018-03-21T18:49:55.717Z,38.70
2018-03-21T18:52:24.007Z,39.30
2018-03-21T18:54:51.487Z,39.30
2018-03-21T18:57:18.991Z,39.40
2018-03-21T18:59:46.482Z,39.30
2018-03-21T19:02:14.069Z,40.00
2018-03-21T19:04:41.608Z,39.90
2018-03-21T19:07:09.075Z,84.30
2018-03-21T19:09:36.631Z,60.10
2018-03-21T19:12:04.103Z,52.00
2018-03-21T19:14:31.619Z,46.90
2018-03-21T19:16:59.117Z,46.20
2018-03-21T19:19:26.614Z,45.50
2018-03-21T19:21:54.127Z,45.30
2018-03-21T19:24:21.643Z,45.10
2018-03-21T19:26:49.135Z,45.10
2018-03-21T19:29:17.415Z,45.50
2018-03-21T19:31:44.936Z,45.50
2018-03-21T19:34:12.457Z,44.50
2018-03-21T19:36:39.971Z,45.50
2018-03-21T19:39:07.498Z,45.00
2018-03-21T19:41:35.021Z,45.30
2018-03-21T19:44:02.529Z,45.50
2018-03-21T19:46:30.081Z,44.40
2018-03-21T19:48:57.613Z,44.70
2018-03-21T19:51:25.072Z,45.80
2018-03-21T19:53:53.312Z,45.70
2018-03-21T19:56:20.839Z,45.70
2018-03-21T19:58:48.327Z,45.80
2018-03-21T20:01:15.840Z,46.00
2018-03-21T20:03:44.086Z,46.50
2018-03-21T20:06:11.612Z,46.50
2018-03-21T20:08:39.568Z,45.20
2018-03-21T20:11:07.073Z,45.50
2018-03-21T20:13:34.599Z,45.30
2018-03-21T20:16:02.105Z,46.50
2018-03-21T20:18:29.626Z,46.00
2018-03-21T20:20:57.095Z,44.90
2018-03-21T20:23:24.736Z,45.10
2018-03-21T20:25:52.229Z,46.00
2018-03-21T20:28:19.747Z,47.00
2018-03-21T20:30:47.231Z,46.70
2018-03-21T20:33:14.751Z,46.50
2018-03-21T20:35:42.239Z,45.20
2018-03-21T20:38:09.778Z,45.30
2018-03-21T20:40:37.291Z,45.40
2018-03-21T20:43:04.774Z,45.70
2018-03-21T20:45:33.037Z,47.30
2018-03-21T20:48:01.327Z,46.50
2018-03-21T20:50:29.596Z,45.90
2018-03-21T20:52:57.875Z,45.80
2018-03-21T20:55:26.180Z,45.50
2018-03-21T20:57:53.662Z,45.50
2018-03-21T21:00:21.217Z,46.20
2018-03-21T21:02:48.691Z,46.40
2018-03-21T21:05:16.239Z,46.50
2018-03-21T21:07:43.755Z,46.40
2018-03-21T21:10:12.024Z,46.80
2018-03-21T21:12:40.295Z,46.90
2018-03-21T21:15:07.913Z,46.90
2018-03-21T21:17:35.380Z,47.00
2018-03-21T21:20:02.915Z,45.40
2018-03-21T21:22:30.395Z,46.50
2018-03-21T21:24:57.897Z,46.30
2018-03-21T21:27:26.129Z,47.50
2018-03-21T21:29:53.632Z,47.50
2018-03-21T21:32:21.926Z,44.80
2018-03-21T21:34:50.187Z,45.40
2018-03-21T21:37:18.446Z,45.70
2018-03-21T21:39:45.937Z,45.70
2018-03-21T21:42:14.212Z,44.70
2018-03-21T21:44:41.728Z,44.50
2018-03-21T21:47:09.254Z,46.00
2018-03-21T21:49:36.756Z,47.50
2018-03-21T21:52:04.244Z,47.10
2018-03-21T21:54:32.650Z,47.30
2018-03-21T21:57:00.168Z,47.00
2018-03-21T21:59:27.687Z,47.10
2018-03-21T22:01:55.171Z,46.70
2018-03-21T22:04:22.689Z,47.20
2018-03-21T22:06:50.153Z,47.40
2018-03-21T22:09:17.680Z,47.20
2018-03-21T22:11:45.916Z,45.20
2018-03-21T22:14:14.178Z,47.80
2018-03-21T22:16:41.706Z,47.90
2018-03-21T22:19:09.211Z,48.20
2018-03-21T22:21:36.781Z,46.50
2018-03-21T22:24:04.308Z,46.60
2018-03-21T22:26:31.776Z,47.00
2018-03-21T22:28:59.278Z,47.90
2018-03-21T22:31:27.553Z,47.10
2018-03-21T22:33:55.807Z,47.10
2018-03-21T22:36:23.282Z,47.10
2018-03-21T22:38:50.770Z,45.80
2018-03-21T22:41:18.246Z,50.50
2018-03-21T22:43:45.763Z,50.90
2018-03-21T22:46:14.011Z,51.00
2018-03-21T22:48:41.523Z,50.90
2018-03-21T22:51:08.992Z,50.30
2018-03-21T22:53:36.498Z,47.90
2018-03-21T22:56:03.977Z,49.70
2018-03-21T22:58:32.243Z,51.80
2018-03-21T23:00:59.750Z,51.80
2018-03-21T23:03:27.255Z,52.10
2018-03-21T23:05:54.748Z,50.20
2018-03-21T23:08:22.214Z,50.60
2018-03-21T23:10:49.744Z,50.00
2018-03-21T23:13:18.010Z,50.40
2018-03-21T23:15:45.543Z,50.60
2018-03-21T23:18:13.020Z,50.40
2018-03-21T23:20:40.575Z,49.10
2018-03-21T23:23:08.056Z,49.70
2018-03-21T23:25:36.335Z,52.10
2018-03-21T23:28:03.812Z,52.10
2018-03-21T23:30:31.328Z,51.80
2018-03-21T23:32:58.803Z,52.10
2018-03-21T23:35:26.322Z,52.60
2018-03-21T23:37:53.835Z,52.10
2018-03-21T23:40:22.071Z,52.10
2018-03-21T23:42:49.613Z,51.90
2018-03-21T23:45:17.120Z,53.10
2018-03-21T23:47:44.599Z,53.40
2018-03-21T23:50:12.856Z,52.70
2018-03-21T23:52:40.389Z,52.70
2018-03-21T23:55:07.868Z,52.00
2018-03-21T23:57:35.366Z,50.70
